Weather at Lumberton Regional Airport

Public forecast

Using degrees Fahrenheit for public forecast. Weather courtesy of forecast.io.

Current aviation weather report (METAR) for Lumberton Regional Airport

Report is more than 6 hours old.

Retrieved 2019/03/28 13:55 UTC (3 years ago):

KLBT 281355Z MKT MSM M M M M A0000 M M RMK TEST

Aviation forecast (TAF) for Lumberton Regional Airport

Retrieved 2021/11/28 12:22 UTC (5 hours ago):

TAF KLBT 281120Z 2812/2912 23006KT P6SM BKN250 FM281500 25008KT P6SM BKN250 FM282200 28002KT P6SM BKN250 FM290600 36005KT P6SM BKN250 AMD NOT SKED